Time;durP1;ratioP1;P1;durP2;ratioP2;P2;SDS_P1;SDS_P2;PMS_P1;PMS_P2;Temp;Humidity;BMP_temperature;BMP_pressure;BME280_temperature;BME280_humidity;BME280_pressure;Samples;Min_cycle;Max_cycle;Signal;HPM_P1;HPM_P2
2022/03/12 00:01:12;;;;;;;9.73;7.90;;;;;;;;;;5097165;28;20302;-59
2022/03/12 00:03:38;;;;;;;7.40;5.88;;;;;;;;;;5095073;28;20211;-62
2022/03/12 00:06:05;;;;;;;6.40;5.68;;;;;;;;;;5100892;28;20198;-62
2022/03/12 00:08:43;;;;;;;6.85;5.95;;;;;;;;;;5102476;28;20195;-59
2022/03/12 00:11:13;;;;;;;7.85;5.93;;;;;;;;;;5098767;28;20203;-60
2022/03/12 00:13:38;;;;;;;9.55;6.93;;;;;;;;;;5101424;28;20175;-60
2022/03/12 00:16:07;;;;;;;10.00;7.15;;;;;;;;;;5103719;28;20186;-60
2022/03/12 00:18:34;;;;;;;14.05;7.18;;;;;;;;;;5102828;28;20207;-60
2022/03/12 00:21:02;;;;;;;6.18;5.57;;;;;;;;;;5101192;28;20196;-60
2022/03/12 00:23:28;;;;;;;5.70;5.13;;;;;;;;;;5099189;28;20179;-60
2022/03/12 00:25:54;;;;;;;7.05;5.15;;;;;;;;;;5098917;28;20188;-60
2022/03/12 00:28:19;;;;;;;9.25;5.88;;;;;;;;;;5104554;28;20624;-60
2022/03/12 00:30:45;;;;;;;7.97;5.97;;;;;;;;;;5083959;28;20195;-60
2022/03/12 00:33:11;;;;;;;13.00;8.13;;;;;;;;;;5095235;28;20272;-60
2022/03/12 00:35:36;;;;;;;10.63;7.72;;;;;;;;;;5081979;28;20180;-60
2022/03/12 00:38:02;;;;;;;9.05;6.25;;;;;;;;;;5098809;28;20235;-60
2022/03/12 00:40:27;;;;;;;11.10;7.10;;;;;;;;;;5102354;27;20192;-60
2022/03/12 00:42:52;;;;;;;7.45;6.32;;;;;;;;;;5102091;28;20190;-60
2022/03/12 00:45:19;;;;;;;9.98;7.18;;;;;;;;;;5105430;28;20228;-60
2022/03/12 00:47:44;;;;;;;9.18;7.00;;;;;;;;;;5097708;28;20184;-60
2022/03/12 00:50:09;;;;;;;8.60;6.55;;;;;;;;;;5094608;28;20200;-60
2022/03/12 00:52:35;;;;;;;14.52;7.28;;;;;;;;;;5080337;28;20195;-60
2022/03/12 00:55:00;;;;;;;9.15;7.47;;;;;;;;;;5079623;28;20172;-60
2022/03/12 00:57:26;;;;;;;8.80;7.18;;;;;;;;;;5084958;28;20196;-60
2022/03/12 00:59:51;;;;;;;9.85;6.78;;;;;;;;;;5095687;28;20266;-60
2022/03/12 01:02:17;;;;;;;10.25;7.63;;;;;;;;;;5109038;28;20204;-60
2022/03/12 01:04:42;;;;;;;11.50;7.30;;;;;;;;;;5099750;28;20835;-60
2022/03/12 01:07:10;;;;;;;10.13;7.82;;;;;;;;;;5102105;28;20181;-60
2022/03/12 01:09:36;;;;;;;10.60;7.38;;;;;;;;;;5098948;28;20187;-61
2022/03/12 01:12:01;;;;;;;7.50;6.65;;;;;;;;;;5100384;28;20429;-60
2022/03/12 01:14:26;;;;;;;9.20;6.95;;;;;;;;;;5098685;28;20172;-61
2022/03/12 01:16:55;;;;;;;9.90;8.00;;;;;;;;;;5099930;28;20644;-61
2022/03/12 01:19:21;;;;;;;9.77;7.10;;;;;;;;;;5106888;28;20229;-61
2022/03/12 01:21:46;;;;;;;10.13;7.38;;;;;;;;;;5090674;28;20173;-61
2022/03/12 01:24:11;;;;;;;10.13;7.18;;;;;;;;;;5099159;28;20818;-61
2022/03/12 01:26:39;;;;;;;10.40;7.60;;;;;;;;;;5101674;28;20184;-60
2022/03/12 01:29:07;;;;;;;12.15;8.20;;;;;;;;;;5097585;28;20180;-61
2022/03/12 01:31:32;;;;;;;9.73;8.02;;;;;;;;;;5096251;28;20192;-61
2022/03/12 01:33:57;;;;;;;11.13;8.35;;;;;;;;;;5091245;28;20899;-61
2022/03/12 01:36:23;;;;;;;11.95;8.35;;;;;;;;;;5078577;28;20848;-61
2022/03/12 01:38:49;;;;;;;9.13;7.65;;;;;;;;;;5080611;28;20211;-61
2022/03/12 01:41:18;;;;;;;13.05;9.75;;;;;;;;;;5097170;28;21014;-61
2022/03/12 01:43:44;;;;;;;13.70;8.70;;;;;;;;;;5099797;28;20176;-61
2022/03/12 01:46:10;;;;;;;17.83;10.23;;;;;;;;;;5105547;28;20528;-61
2022/03/12 01:48:38;;;;;;;15.30;8.77;;;;;;;;;;5098745;28;20185;-61
2022/03/12 01:51:03;;;;;;;12.23;8.60;;;;;;;;;;5095031;28;20753;-61
2022/03/12 01:53:28;;;;;;;15.07;9.18;;;;;;;;;;5109417;28;20183;-61
2022/03/12 01:55:54;;;;;;;12.30;8.23;;;;;;;;;;5079577;28;20180;-61
2022/03/12 01:58:20;;;;;;;13.38;7.70;;;;;;;;;;5078691;28;20253;-61
2022/03/12 02:00:47;;;;;;;10.68;6.80;;;;;;;;;;5087576;28;20168;-61
2022/03/12 02:03:13;;;;;;;11.43;7.80;;;;;;;;;;5094638;27;20203;-61
2022/03/12 02:05:38;;;;;;;11.38;7.47;;;;;;;;;;5101754;28;20183;-61
2022/03/12 02:08:04;;;;;;;9.77;6.90;;;;;;;;;;5093871;28;20176;-60
2022/03/12 02:10:30;;;;;;;7.75;6.38;;;;;;;;;;5099015;28;20187;-60
2022/03/12 02:12:55;;;;;;;8.45;6.38;;;;;;;;;;5090997;28;20270;-61
2022/03/12 02:15:21;;;;;;;7.32;5.45;;;;;;;;;;5096415;28;20179;-60
2022/03/12 02:17:46;;;;;;;6.13;5.10;;;;;;;;;;5097182;28;20211;-60
2022/03/12 02:20:15;;;;;;;7.03;5.45;;;;;;;;;;5099324;28;20502;-61
2022/03/12 02:22:40;;;;;;;6.45;5.22;;;;;;;;;;5105053;28;20180;-61
2022/03/12 02:25:06;;;;;;;6.78;5.50;;;;;;;;;;5101437;28;20173;-61
2022/03/12 02:27:32;;;;;;;7.05;5.60;;;;;;;;;;5102061;28;20179;-61
2022/03/12 02:29:59;;;;;;;7.20;5.70;;;;;;;;;;5097697;28;20173;-60
2022/03/12 02:32:24;;;;;;;6.65;4.70;;;;;;;;;;5104332;28;20180;-60
2022/03/12 02:34:50;;;;;;;6.97;5.35;;;;;;;;;;5099420;28;20237;-60
2022/03/12 02:37:29;;;;;;;5.30;4.80;;;;;;;;;;5085187;28;20609;-61
2022/03/12 02:39:55;;;;;;;7.80;4.75;;;;;;;;;;5097561;28;20204;-61
2022/03/12 02:42:20;;;;;;;6.65;4.65;;;;;;;;;;5099541;28;20691;-60
2022/03/12 02:44:48;;;;;;;6.35;4.40;;;;;;;;;;5098838;28;20187;-60
2022/03/12 02:47:20;;;;;;;5.47;3.88;;;;;;;;;;5100548;28;20180;-61
2022/03/12 02:49:53;;;;;;;4.82;4.00;;;;;;;;;;5094860;28;20256;-60
2022/03/12 02:52:18;;;;;;;4.75;4.28;;;;;;;;;;5101457;28;20351;-60
2022/03/12 02:54:44;;;;;;;5.53;4.30;;;;;;;;;;5101357;28;20175;-61
2022/03/12 02:57:10;;;;;;;9.07;4.38;;;;;;;;;;5090812;28;20204;-60
2022/03/12 02:59:35;;;;;;;7.10;4.40;;;;;;;;;;5076017;28;20176;-60
2022/03/12 03:02:03;;;;;;;4.68;4.20;;;;;;;;;;5078304;28;20617;-60
2022/03/12 03:04:30;;;;;;;4.25;3.72;;;;;;;;;;5104508;28;20273;-60
2022/03/12 03:06:55;;;;;;;5.50;4.40;;;;;;;;;;5095896;28;20199;-61
2022/03/12 03:09:20;;;;;;;4.57;4.05;;;;;;;;;;5101119;28;20207;-60
2022/03/12 03:11:46;;;;;;;5.22;4.30;;;;;;;;;;5086654;28;20176;-60
2022/03/12 03:14:12;;;;;;;5.10;3.88;;;;;;;;;;5084822;28;20255;-60
2022/03/12 03:16:38;;;;;;;4.80;3.95;;;;;;;;;;5088273;28;20622;-61
2022/03/12 03:19:03;;;;;;;8.07;4.95;;;;;;;;;;5085625;28;20863;-60
2022/03/12 03:21:29;;;;;;;4.57;4.13;;;;;;;;;;5076776;28;20262;-61
2022/03/12 03:23:55;;;;;;;9.57;5.32;;;;;;;;;;5078564;28;20222;-60
2022/03/12 03:26:23;;;;;;;7.57;5.93;;;;;;;;;;5100231;28;20203;-61
2022/03/12 03:28:49;;;;;;;6.53;4.50;;;;;;;;;;5102593;28;20170;-60
2022/03/12 03:31:16;;;;;;;5.55;4.63;;;;;;;;;;5095506;28;20275;-61
2022/03/12 03:33:41;;;;;;;6.22;4.15;;;;;;;;;;5093130;28;20168;-60
2022/03/12 03:36:06;;;;;;;4.63;3.80;;;;;;;;;;5090316;28;20205;-61
2022/03/12 03:38:32;;;;;;;4.80;3.92;;;;;;;;;;5090023;28;21108;-60
2022/03/12 03:40:57;;;;;;;6.70;4.57;;;;;;;;;;5097804;28;20966;-60
2022/03/12 03:43:23;;;;;;;3.90;3.60;;;;;;;;;;5096589;28;20183;-60
2022/03/12 03:45:49;;;;;;;3.90;3.60;;;;;;;;;;5101471;28;20172;-61
2022/03/12 03:48:16;;;;;;;4.05;3.67;;;;;;;;;;5106009;28;20203;-60
2022/03/12 03:50:42;;;;;;;3.63;3.33;;;;;;;;;;5094087;28;20196;-60
2022/03/12 03:53:10;;;;;;;5.25;4.00;;;;;;;;;;5102919;28;20558;-60
2022/03/12 03:55:35;;;;;;;6.60;3.70;;;;;;;;;;5108377;28;20656;-61
2022/03/12 03:58:03;;;;;;;4.57;4.18;;;;;;;;;;5096406;28;20195;-61
2022/03/12 04:00:28;;;;;;;4.95;3.85;;;;;;;;;;5106479;28;20180;-61
2022/03/12 04:03:01;;;;;;;5.65;4.03;;;;;;;;;;5099612;28;20264;-61
2022/03/12 04:05:27;;;;;;;3.78;3.45;;;;;;;;;;5101655;28;20168;-61
2022/03/12 04:07:52;;;;;;;5.10;3.65;;;;;;;;;;5107677;28;20178;-61
2022/03/12 04:10:17;;;;;;;4.85;3.75;;;;;;;;;;5102504;28;20253;-61
2022/03/12 04:12:42;;;;;;;4.60;4.05;;;;;;;;;;5099297;28;20176;-61
2022/03/12 04:15:09;;;;;;;4.97;4.47;;;;;;;;;;5104681;28;20656;-60
2022/03/12 04:17:34;;;;;;;3.67;3.38;;;;;;;;;;5098603;28;20200;-61
2022/03/12 04:20:00;;;;;;;4.32;3.65;;;;;;;;;;5106617;28;20951;-61
2022/03/12 04:22:26;;;;;;;4.25;3.85;;;;;;;;;;5084596;28;21363;-60
2022/03/12 04:24:51;;;;;;;3.70;3.40;;;;;;;;;;5079633;28;20661;-60
2022/03/12 04:27:16;;;;;;;4.97;3.78;;;;;;;;;;5102270;28;20175;-61
2022/03/12 04:29:42;;;;;;;6.15;4.22;;;;;;;;;;5096185;28;20176;-61
2022/03/12 04:32:10;;;;;;;4.35;3.95;;;;;;;;;;5099294;28;20187;-60
2022/03/12 04:34:35;;;;;;;6.38;3.85;;;;;;;;;;5099235;28;20176;-60
2022/03/12 04:37:01;;;;;;;4.03;3.67;;;;;;;;;;5103835;28;20240;-61
2022/03/12 04:39:26;;;;;;;3.90;3.58;;;;;;;;;;5098735;28;20674;-61
2022/03/12 04:41:52;;;;;;;4.75;3.38;;;;;;;;;;5100748;28;20175;-61
2022/03/12 04:44:18;;;;;;;4.82;3.60;;;;;;;;;;5098497;28;20184;-60
2022/03/12 04:46:43;;;;;;;4.65;4.10;;;;;;;;;;5098857;28;20180;-61
2022/03/12 04:49:08;;;;;;;5.65;3.40;;;;;;;;;;5102710;28;20211;-61
2022/03/12 04:51:34;;;;;;;4.03;3.28;;;;;;;;;;5107583;28;20202;-60
2022/03/12 04:53:59;;;;;;;3.90;3.60;;;;;;;;;;5104816;28;20254;-61
2022/03/12 04:56:25;;;;;;;5.78;4.20;;;;;;;;;;5100421;28;20190;-61
2022/03/12 04:58:53;;;;;;;4.38;3.92;;;;;;;;;;5089723;28;20203;-61
2022/03/12 05:01:18;;;;;;;4.55;3.83;;;;;;;;;;5105054;28;20164;-61
2022/03/12 05:03:44;;;;;;;4.95;3.80;;;;;;;;;;5095134;28;20176;-60
2022/03/12 05:06:13;;;;;;;4.65;4.13;;;;;;;;;;5077243;28;20719;-61
2022/03/12 05:08:38;;;;;;;4.35;3.63;;;;;;;;;;5099225;28;20540;-61
2022/03/12 05:11:04;;;;;;;5.60;4.68;;;;;;;;;;5092595;28;20180;-61
2022/03/12 05:13:29;;;;;;;8.25;5.13;;;;;;;;;;5104105;28;20180;-61
2022/03/12 05:15:56;;;;;;;5.50;4.25;;;;;;;;;;5089835;28;20233;-61
2022/03/12 05:18:23;;;;;;;6.60;3.80;;;;;;;;;;5095214;28;20200;-60
2022/03/12 05:20:49;;;;;;;3.65;3.28;;;;;;;;;;5103992;28;20175;-61
2022/03/12 05:23:16;;;;;;;6.50;3.63;;;;;;;;;;5098794;28;20179;-61
2022/03/12 05:25:42;;;;;;;5.63;3.53;;;;;;;;;;5085922;28;20183;-61
2022/03/12 05:28:11;;;;;;;3.72;3.05;;;;;;;;;;5077243;28;20172;-61
2022/03/12 05:30:36;;;;;;;4.68;4.00;;;;;;;;;;5100571;28;20184;-60
2022/03/12 05:33:02;;;;;;;4.40;3.38;;;;;;;;;;5103705;28;20640;-61
2022/03/12 05:35:28;;;;;;;4.18;3.45;;;;;;;;;;5095101;28;20183;-61
2022/03/12 05:37:54;;;;;;;4.22;3.50;;;;;;;;;;5104190;28;20206;-60
2022/03/12 05:40:19;;;;;;;4.50;3.53;;;;;;;;;;5055955;28;1164787;-60
2022/03/12 05:42:48;;;;;;;4.70;4.28;;;;;;;;;;5099728;28;20294;-60
2022/03/12 05:45:15;;;;;;;4.55;3.45;;;;;;;;;;5095578;28;20245;-61
2022/03/12 05:47:41;;;;;;;4.05;3.70;;;;;;;;;;5078620;28;20177;-61
2022/03/12 05:50:10;;;;;;;9.68;6.00;;;;;;;;;;5098918;28;20226;-61
2022/03/12 05:52:36;;;;;;;9.00;6.60;;;;;;;;;;5097237;28;21114;-60
2022/03/12 05:55:04;;;;;;;6.20;4.85;;;;;;;;;;5101116;28;20183;-60
2022/03/12 05:57:31;;;;;;;6.82;4.55;;;;;;;;;;5097578;28;20200;-61
2022/03/12 05:59:57;;;;;;;10.05;6.93;;;;;;;;;;5099371;28;20190;-60
2022/03/12 06:02:22;;;;;;;12.15;8.27;;;;;;;;;;5097450;28;20295;-61
2022/03/12 06:04:48;;;;;;;9.57;6.10;;;;;;;;;;5103095;28;20283;-61
2022/03/12 06:07:14;;;;;;;6.88;4.50;;;;;;;;;;5103801;28;20179;-61
2022/03/12 06:09:40;;;;;;;7.03;4.68;;;;;;;;;;5097619;28;20606;-61
2022/03/12 06:12:07;;;;;;;6.43;4.53;;;;;;;;;;5099192;28;20183;-61
2022/03/12 06:14:36;;;;;;;6.13;4.75;;;;;;;;;;5095084;28;20245;-61
2022/03/12 06:17:02;;;;;;;6.20;5.38;;;;;;;;;;5102166;28;20164;-61
2022/03/12 06:19:29;;;;;;;7.30;5.20;;;;;;;;;;5101092;28;20174;-61
2022/03/12 06:21:55;;;;;;;6.65;5.30;;;;;;;;;;5101845;28;20264;-61
2022/03/12 06:24:21;;;;;;;8.90;6.25;;;;;;;;;;5093687;28;21113;-61
2022/03/12 06:26:46;;;;;;;12.43;8.57;;;;;;;;;;5107157;28;20266;-61
2022/03/12 06:29:13;;;;;;;17.52;10.15;;;;;;;;;;5099767;28;20175;-61
2022/03/12 06:31:41;;;;;;;10.90;6.25;;;;;;;;;;5097795;28;20286;-61
2022/03/12 06:34:09;;;;;;;23.42;13.20;;;;;;;;;;5102296;28;20207;-61
2022/03/12 06:36:34;;;;;;;7.40;5.47;;;;;;;;;;5088269;28;20592;-61
2022/03/12 06:39:00;;;;;;;7.55;5.30;;;;;;;;;;5096512;28;20859;-60
2022/03/12 06:41:25;;;;;;;7.13;5.22;;;;;;;;;;5102245;28;20322;-61
2022/03/12 06:43:50;;;;;;;20.50;12.95;;;;;;;;;;5103236;28;20176;-61
2022/03/12 06:46:16;;;;;;;7.03;5.90;;;;;;;;;;5101255;28;20180;-61
2022/03/12 06:48:42;;;;;;;8.75;5.35;;;;;;;;;;5101423;28;20180;-61
2022/03/12 06:51:08;;;;;;;6.68;5.30;;;;;;;;;;5075753;28;20709;-61
2022/03/12 06:53:33;;;;;;;8.45;6.15;;;;;;;;;;5078372;28;20173;-61
2022/03/12 06:55:59;;;;;;;7.88;5.28;;;;;;;;;;5091783;28;20183;-61
2022/03/12 06:58:26;;;;;;;6.22;4.65;;;;;;;;;;5101190;28;20767;-61
2022/03/12 07:00:51;;;;;;;9.15;4.50;;;;;;;;;;5101122;28;20181;-61
2022/03/12 07:03:17;;;;;;;6.55;5.60;;;;;;;;;;5104575;28;20179;-61
2022/03/12 07:05:42;;;;;;;6.00;4.93;;;;;;;;;;5100739;28;20175;-61
2022/03/12 07:08:08;;;;;;;5.05;4.50;;;;;;;;;;5101326;28;20179;-61
2022/03/12 07:10:33;;;;;;;7.40;5.72;;;;;;;;;;5087715;28;20678;-61
2022/03/12 07:12:58;;;;;;;7.05;4.60;;;;;;;;;;5096660;28;20191;-61
2022/03/12 07:15:24;;;;;;;5.03;4.35;;;;;;;;;;5098463;28;20183;-61
2022/03/12 07:17:49;;;;;;;8.20;5.72;;;;;;;;;;5105327;28;20608;-60
2022/03/12 07:20:15;;;;;;;6.35;5.30;;;;;;;;;;5091393;28;20176;-60
2022/03/12 07:22:41;;;;;;;5.03;4.45;;;;;;;;;;5097927;28;20176;-61
2022/03/12 07:25:10;;;;;;;5.68;4.97;;;;;;;;;;5098255;28;20171;-61
2022/03/12 07:27:35;;;;;;;10.50;6.43;;;;;;;;;;5092577;28;20177;-61
2022/03/12 07:30:00;;;;;;;8.68;5.93;;;;;;;;;;5094629;28;20188;-61
2022/03/12 07:32:28;;;;;;;10.30;6.45;;;;;;;;;;5096795;28;20183;-61
2022/03/12 07:34:53;;;;;;;9.82;6.88;;;;;;;;;;5096849;28;20253;-61
2022/03/12 07:37:20;;;;;;;7.50;6.30;;;;;;;;;;5099468;28;20175;-61
2022/03/12 07:39:46;;;;;;;10.05;7.20;;;;;;;;;;5098058;28;20720;-61
2022/03/12 07:42:11;;;;;;;10.50;7.80;;;;;;;;;;5094116;28;20259;-61
2022/03/12 07:44:36;;;;;;;15.73;9.80;;;;;;;;;;5092013;28;20250;-61
2022/03/12 07:47:02;;;;;;;17.92;10.52;;;;;;;;;;5100512;28;20234;-60
2022/03/12 07:49:28;;;;;;;17.88;11.05;;;;;;;;;;5093358;28;20772;-61
2022/03/12 07:51:53;;;;;;;14.70;10.15;;;;;;;;;;5097507;28;20186;-61
2022/03/12 07:54:19;;;;;;;13.88;9.57;;;;;;;;;;5094054;28;20187;-61
2022/03/12 07:56:44;;;;;;;12.40;10.00;;;;;;;;;;5097122;28;20190;-61
2022/03/12 07:59:11;;;;;;;13.13;9.00;;;;;;;;;;5095074;28;20678;-61
2022/03/12 08:01:36;;;;;;;18.52;12.80;;;;;;;;;;5105808;28;20183;-61
2022/03/12 08:04:02;;;;;;;17.55;12.48;;;;;;;;;;5091604;28;20982;-61
2022/03/12 08:06:28;;;;;;;29.75;14.27;;;;;;;;;;5104630;28;20239;-61
2022/03/12 08:08:54;;;;;;;19.20;13.07;;;;;;;;;;5095900;28;20215;-60
2022/03/12 08:11:25;;;;;;;16.58;11.60;;;;;;;;;;5101391;28;20215;-60
2022/03/12 08:14:01;;;;;;;20.88;12.75;;;;;;;;;;5096019;28;20187;-61
2022/03/12 08:16:28;;;;;;;18.60;12.32;;;;;;;;;;5096654;28;20175;-61
2022/03/12 08:18:54;;;;;;;21.73;12.38;;;;;;;;;;5098265;28;20242;-61
2022/03/12 08:21:20;;;;;;;20.67;13.95;;;;;;;;;;5099438;28;20262;-61
2022/03/12 08:23:46;;;;;;;18.20;11.65;;;;;;;;;;5096545;28;20171;-61
2022/03/12 08:26:12;;;;;;;23.67;14.18;;;;;;;;;;5101412;28;20192;-61
2022/03/12 08:28:37;;;;;;;21.70;13.13;;;;;;;;;;5091777;28;20184;-61
2022/03/12 08:31:03;;;;;;;22.17;13.48;;;;;;;;;;5095953;28;20211;-61
2022/03/12 08:33:29;;;;;;;16.48;11.23;;;;;;;;;;5108201;28;20570;-61
2022/03/12 08:35:56;;;;;;;18.77;12.10;;;;;;;;;;5100474;28;20831;-61
2022/03/12 08:38:21;;;;;;;20.50;12.00;;;;;;;;;;5099841;28;20203;-61
2022/03/12 08:40:47;;;;;;;18.38;12.25;;;;;;;;;;5105240;27;20213;-61
2022/03/12 08:43:12;;;;;;;22.45;12.90;;;;;;;;;;5110296;28;20190;-61
2022/03/12 08:45:38;;;;;;;14.90;10.18;;;;;;;;;;5100938;28;20257;-61
2022/03/12 08:48:03;;;;;;;18.67;12.63;;;;;;;;;;5097027;28;20708;-61
2022/03/12 08:50:29;;;;;;;14.25;8.88;;;;;;;;;;5091144;28;20211;-61
2022/03/12 08:52:54;;;;;;;11.77;7.03;;;;;;;;;;5100427;28;20270;-60
2022/03/12 08:55:20;;;;;;;11.30;8.13;;;;;;;;;;5106689;28;20297;-61
2022/03/12 08:57:46;;;;;;;11.23;8.65;;;;;;;;;;5098502;28;20203;-60
2022/03/12 09:00:12;;;;;;;15.25;11.57;;;;;;;;;;5100384;28;20176;-60
2022/03/12 09:02:38;;;;;;;9.82;7.30;;;;;;;;;;5102654;28;20191;-60
2022/03/12 09:05:05;;;;;;;9.25;7.10;;;;;;;;;;5099327;28;20175;-61
2022/03/12 09:07:30;;;;;;;10.15;7.43;;;;;;;;;;5106406;28;20183;-61
2022/03/12 09:09:56;;;;;;;10.88;8.02;;;;;;;;;;5094830;28;20263;-61
2022/03/12 09:12:22;;;;;;;16.38;11.27;;;;;;;;;;5102917;28;20180;-61
2022/03/12 09:14:48;;;;;;;12.02;8.00;;;;;;;;;;5095137;28;20238;-61
2022/03/12 09:17:13;;;;;;;10.65;7.85;;;;;;;;;;5097319;28;20761;-61
2022/03/12 09:19:38;;;;;;;11.93;8.82;;;;;;;;;;5099106;28;20877;-61
2022/03/12 09:22:04;;;;;;;11.50;8.80;;;;;;;;;;5101302;28;20171;-61
2022/03/12 09:24:30;;;;;;;11.23;8.48;;;;;;;;;;5103304;28;20198;-61
2022/03/12 09:26:56;;;;;;;11.75;8.68;;;;;;;;;;5099014;28;20184;-61
2022/03/12 09:29:22;;;;;;;9.10;7.07;;;;;;;;;;5092182;28;20180;-61
2022/03/12 09:31:48;;;;;;;12.43;8.60;;;;;;;;;;5106857;28;20262;-61
2022/03/12 09:34:13;;;;;;;9.80;7.60;;;;;;;;;;5097568;28;20275;-61
2022/03/12 09:36:40;;;;;;;10.80;7.80;;;;;;;;;;5103572;28;20195;-61
2022/03/12 09:39:06;;;;;;;15.30;10.48;;;;;;;;;;5096823;28;20207;-61
2022/03/12 09:41:33;;;;;;;15.20;11.15;;;;;;;;;;5098415;28;20219;-61
2022/03/12 09:43:59;;;;;;;16.67;12.82;;;;;;;;;;5101706;28;20607;-61
2022/03/12 09:46:24;;;;;;;15.02;10.52;;;;;;;;;;5101935;28;20238;-61
2022/03/12 09:48:49;;;;;;;15.50;10.85;;;;;;;;;;5104804;27;20229;-61
2022/03/12 09:51:15;;;;;;;43.13;30.75;;;;;;;;;;5091586;28;20208;-61
2022/03/12 09:53:40;;;;;;;35.90;23.02;;;;;;;;;;5091782;28;20211;-60
2022/03/12 09:56:06;;;;;;;26.10;17.63;;;;;;;;;;5102625;28;20634;-61
2022/03/12 09:58:31;;;;;;;38.78;22.42;;;;;;;;;;5094659;28;20203;-61
2022/03/12 10:00:56;;;;;;;21.30;14.18;;;;;;;;;;5097601;28;20899;-61
2022/03/12 10:03:22;;;;;;;31.75;16.80;;;;;;;;;;5099243;28;21289;-61
2022/03/12 10:05:47;;;;;;;16.05;10.20;;;;;;;;;;5096810;28;20696;-61
2022/03/12 10:08:12;;;;;;;33.00;15.23;;;;;;;;;;5104728;28;20180;-61
2022/03/12 10:10:38;;;;;;;18.17;10.52;;;;;;;;;;5095140;28;20341;-61
2022/03/12 10:13:04;;;;;;;15.23;8.68;;;;;;;;;;5099898;28;20179;-61
2022/03/12 10:15:30;;;;;;;18.38;10.23;;;;;;;;;;5098828;28;20222;-60
2022/03/12 10:17:56;;;;;;;10.77;7.25;;;;;;;;;;5091496;28;20231;-61
2022/03/12 10:20:21;;;;;;;13.30;6.97;;;;;;;;;;5099343;28;20327;-61
2022/03/12 10:22:47;;;;;;;13.38;10.00;;;;;;;;;;5097843;28;20761;-61
2022/03/12 10:25:13;;;;;;;28.25;15.38;;;;;;;;;;5099765;28;20186;-61
2022/03/12 10:27:39;;;;;;;25.58;15.23;;;;;;;;;;5092745;28;20254;-61
2022/03/12 10:30:05;;;;;;;45.22;24.02;;;;;;;;;;5099191;28;20188;-61
2022/03/12 10:32:34;;;;;;;25.30;13.85;;;;;;;;;;5098688;28;20928;-61
2022/03/12 10:35:01;;;;;;;18.77;10.93;;;;;;;;;;5104221;28;20171;-61
2022/03/12 10:37:30;;;;;;;12.55;8.13;;;;;;;;;;5097882;28;20267;-61
2022/03/12 10:40:14;;;;;;;14.13;8.38;;;;;;;;;;5100454;28;20191;-61
2022/03/12 10:42:47;;;;;;;23.42;16.42;;;;;;;;;;5096192;28;20179;-61
2022/03/12 10:45:13;;;;;;;18.33;13.30;;;;;;;;;;5098427;28;20236;-61
2022/03/12 10:47:50;;;;;;;21.00;11.18;;;;;;;;;;5096087;28;20245;-61
2022/03/12 10:50:20;;;;;;;15.20;9.02;;;;;;;;;;5097468;28;20200;-61
2022/03/12 10:52:49;;;;;;;10.00;7.95;;;;;;;;;;5102094;28;20176;-61
2022/03/12 10:55:17;;;;;;;6.85;6.20;;;;;;;;;;5091157;28;20298;-61
2022/03/12 10:57:57;;;;;;;7.38;4.47;;;;;;;;;;5102431;28;20690;-61
2022/03/12 11:00:27;;;;;;;6.00;5.10;;;;;;;;;;5103676;28;20986;-61
2022/03/12 11:02:57;;;;;;;15.18;11.55;;;;;;;;;;5083714;28;20279;-61
2022/03/12 11:05:27;;;;;;;7.13;4.88;;;;;;;;;;5097358;28;20182;-61
2022/03/12 11:08:04;;;;;;;8.20;6.25;;;;;;;;;;5099832;28;20660;-61
2022/03/12 11:10:36;;;;;;;5.97;5.05;;;;;;;;;;5093692;28;20262;-61
2022/03/12 11:13:02;;;;;;;8.20;5.63;;;;;;;;;;5096325;28;20177;-60
2022/03/12 11:15:31;;;;;;;11.23;6.93;;;;;;;;;;5097867;28;20188;-61
2022/03/12 11:17:57;;;;;;;15.98;9.55;;;;;;;;;;5104482;28;20288;-61
2022/03/12 11:20:22;;;;;;;18.75;11.40;;;;;;;;;;5092632;28;20294;-60
2022/03/12 11:23:08;;;;;;;18.45;11.27;;;;;;;;;;5100342;28;20325;-61
2022/03/12 11:25:36;;;;;;;5.80;4.63;;;;;;;;;;5095594;28;20187;-61
2022/03/12 11:28:14;;;;;;;15.43;9.70;;;;;;;;;;5098281;28;20226;-61
2022/03/12 11:30:39;;;;;;;22.60;12.50;;;;;;;;;;5099564;28;20172;-61
2022/03/12 11:33:08;;;;;;;12.57;9.00;;;;;;;;;;5102339;28;20172;-61
2022/03/12 11:35:38;;;;;;;7.15;6.25;;;;;;;;;;5099856;28;20232;-61
2022/03/12 11:38:18;;;;;;;9.80;6.93;;;;;;;;;;5087030;28;20196;-61
2022/03/12 11:40:44;;;;;;;9.13;5.78;;;;;;;;;;5097795;28;20206;-61
2022/03/12 11:43:39;;;;;;;12.77;8.02;;;;;;;;;;5094811;28;20630;-61
2022/03/12 11:46:05;;;;;;;9.07;7.05;;;;;;;;;;5086198;28;20692;-61
2022/03/12 11:48:31;;;;;;;13.98;8.68;;;;;;;;;;5097511;28;20175;-61
2022/03/12 11:50:56;;;;;;;9.00;6.90;;;;;;;;;;5097515;28;20204;-61
2022/03/12 11:53:22;;;;;;;7.55;6.20;;;;;;;;;;5089805;28;20180;-61
2022/03/12 11:55:49;;;;;;;11.13;8.20;;;;;;;;;;5100057;28;20182;-61
2022/03/12 11:58:15;;;;;;;7.72;6.63;;;;;;;;;;5097617;28;20208;-61
2022/03/12 12:00:43;;;;;;;10.40;7.15;;;;;;;;;;5100287;28;20198;-61
2022/03/12 12:03:08;;;;;;;6.07;5.47;;;;;;;;;;5105137;28;20179;-60
2022/03/12 12:05:34;;;;;;;7.05;5.85;;;;;;;;;;5089808;28;20188;-60
2022/03/12 12:07:59;;;;;;;8.32;6.30;;;;;;;;;;5080181;28;20210;-61
2022/03/12 12:10:29;;;;;;;11.25;6.82;;;;;;;;;;5081865;28;20176;-60
2022/03/12 12:12:58;;;;;;;13.68;8.93;;;;;;;;;;5103833;28;20210;-60
2022/03/12 12:15:34;;;;;;;8.38;6.10;;;;;;;;;;5095811;28;20196;-60
2022/03/12 12:18:03;;;;;;;16.10;12.77;;;;;;;;;;5103520;28;20195;-60
2022/03/12 12:20:29;;;;;;;11.10;9.02;;;;;;;;;;5099431;28;20185;-60
2022/03/12 12:22:58;;;;;;;7.35;6.00;;;;;;;;;;5095153;28;20233;-61
2022/03/12 12:25:25;;;;;;;9.82;6.55;;;;;;;;;;5105717;28;20171;-61
2022/03/12 12:27:51;;;;;;;6.55;5.68;;;;;;;;;;5081185;28;20212;-60
2022/03/12 12:30:28;;;;;;;6.80;5.45;;;;;;;;;;5080110;28;20180;-61
2022/03/12 12:32:53;;;;;;;8.18;6.45;;;;;;;;;;5103624;28;20167;-61
2022/03/12 12:35:20;;;;;;;7.25;5.97;;;;;;;;;;5104798;28;20556;-60
2022/03/12 12:37:47;;;;;;;7.55;6.30;;;;;;;;;;5100118;28;20723;-60
2022/03/12 12:40:23;;;;;;;9.48;6.07;;;;;;;;;;5106502;28;20191;-60
2022/03/12 12:42:49;;;;;;;6.70;4.63;;;;;;;;;;5104909;28;20179;-60
2022/03/12 12:45:16;;;;;;;7.55;5.43;;;;;;;;;;5104635;28;20186;-60
2022/03/12 12:47:42;;;;;;;9.23;5.57;;;;;;;;;;5103114;28;20172;-60
2022/03/12 12:50:28;;;;;;;5.22;4.68;;;;;;;;;;5099645;27;20579;-60
2022/03/12 12:53:13;;;;;;;7.72;6.18;;;;;;;;;;5101868;28;20191;-61
2022/03/12 12:55:39;;;;;;;8.27;6.45;;;;;;;;;;5104296;28;20214;-61
2022/03/12 12:58:05;;;;;;;7.82;6.68;;;;;;;;;;5109032;28;20191;-61
2022/03/12 13:00:30;;;;;;;6.85;4.60;;;;;;;;;;5095703;28;20210;-60
2022/03/12 13:02:58;;;;;;;10.55;7.80;;;;;;;;;;5100771;28;20171;-61
2022/03/12 13:05:42;;;;;;;42.70;21.98;;;;;;;;;;5108219;28;20175;-60
2022/03/12 13:08:07;;;;;;;7.75;5.95;;;;;;;;;;5089308;28;20661;-60
2022/03/12 13:10:32;;;;;;;18.58;11.50;;;;;;;;;;5078182;28;20187;-60
2022/03/12 13:13:08;;;;;;;13.95;8.60;;;;;;;;;;5080385;28;20215;-60
2022/03/12 13:15:37;;;;;;;7.20;5.45;;;;;;;;;;5099743;28;20179;-60
2022/03/12 13:18:27;;;;;;;13.77;9.45;;;;;;;;;;5092404;28;20206;-60
2022/03/12 13:20:53;;;;;;;10.73;6.65;;;;;;;;;;5098624;28;20164;-61
2022/03/12 13:23:44;;;;;;;9.63;7.07;;;;;;;;;;5103546;28;20182;-60
2022/03/12 13:26:17;;;;;;;8.07;5.68;;;;;;;;;;5094504;28;20177;-60
2022/03/12 13:28:49;;;;;;;8.05;6.57;;;;;;;;;;5091887;28;20187;-60
2022/03/12 13:31:44;;;;;;;6.47;4.90;;;;;;;;;;5097892;28;20389;-60
2022/03/12 13:34:10;;;;;;;6.22;5.28;;;;;;;;;;5090760;27;20195;-61
2022/03/12 13:36:40;;;;;;;7.60;6.00;;;;;;;;;;5106228;28;20171;-60
2022/03/12 13:39:06;;;;;;;8.32;6.28;;;;;;;;;;5093889;28;20642;-60
2022/03/12 13:41:32;;;;;;;10.25;8.00;;;;;;;;;;5097266;28;20410;-60
2022/03/12 13:43:57;;;;;;;10.85;7.63;;;;;;;;;;5093424;28;20177;-60
2022/03/12 13:46:24;;;;;;;12.18;8.90;;;;;;;;;;5088589;28;20179;-61
2022/03/12 13:49:20;;;;;;;14.38;8.70;;;;;;;;;;5101567;28;20259;-64
2022/03/12 13:51:46;;;;;;;8.10;6.30;;;;;;;;;;5076618;28;20284;-60
2022/03/12 13:54:13;;;;;;;12.05;7.60;;;;;;;;;;5098684;28;20184;-61
2022/03/12 13:56:41;;;;;;;10.75;8.40;;;;;;;;;;5101315;28;20220;-61
2022/03/12 13:59:10;;;;;;;9.43;7.95;;;;;;;;;;5100349;28;20197;-60
2022/03/12 14:01:40;;;;;;;9.77;6.65;;;;;;;;;;5098541;28;20177;-60
2022/03/12 14:04:07;;;;;;;6.95;5.50;;;;;;;;;;5096613;28;20187;-61
2022/03/12 14:06:39;;;;;;;12.27;7.68;;;;;;;;;;5098874;28;20179;-61
2022/03/12 14:09:05;;;;;;;9.82;7.75;;;;;;;;;;5102481;28;21169;-61
2022/03/12 14:11:34;;;;;;;11.40;7.60;;;;;;;;;;5091475;28;20188;-61
2022/03/12 14:14:06;;;;;;;13.63;8.93;;;;;;;;;;5096995;28;20783;-62
2022/03/12 14:16:36;;;;;;;12.80;9.25;;;;;;;;;;5097785;28;21139;-59
2022/03/12 14:19:03;;;;;;;13.07;8.15;;;;;;;;;;5103351;28;20583;-60
2022/03/12 14:21:37;;;;;;;12.60;8.57;;;;;;;;;;5097776;28;20180;-59
2022/03/12 14:24:28;;;;;;;5.90;5.30;;;;;;;;;;5105710;28;20171;-62
2022/03/12 14:26:54;;;;;;;10.95;8.75;;;;;;;;;;5105684;28;20198;-60
2022/03/12 14:29:21;;;;;;;12.90;9.63;;;;;;;;;;5103716;28;20631;-60
2022/03/12 14:31:47;;;;;;;12.30;9.10;;;;;;;;;;5099752;28;20187;-59
2022/03/12 14:34:13;;;;;;;16.25;11.25;;;;;;;;;;5098974;28;20183;-59
2022/03/12 14:36:42;;;;;;;14.00;9.43;;;;;;;;;;5097865;27;20182;-62